Time;durP1;ratioP1;P1;durP2;ratioP2;P2;SDS_P1;SDS_P2;PMS_P1;PMS_P2;Temp;Humidity;BMP_temperature;BMP_pressure;BME280_temperature;BME280_humidity;BME280_pressure;Samples;Min_cycle;Max_cycle;Signal;HPM_P1;HPM_P2
2022/09/21 00:01:15;;;;;;;0.60;0.13;;;;;;;9.75;62.35;101490.09;4955285;28;97711;-63
2022/09/21 00:03:42;;;;;;;0.63;0.20;;;;;;;9.72;62.47;101490.53;4947814;28;98979;-63
2022/09/21 00:06:14;;;;;;;2.33;0.25;;;;;;;9.69;62.57;101485.63;4943374;28;97836;-63
2022/09/21 00:08:40;;;;;;;1.70;0.20;;;;;;;9.67;62.53;101486.91;4948758;28;97850;-63
2022/09/21 00:11:07;;;;;;;0.68;0.20;;;;;;;9.65;62.86;101492.53;4938847;28;98168;-63
2022/09/21 00:13:36;;;;;;;0.70;0.25;;;;;;;9.66;62.78;101490.66;4966185;28;98978;-64
2022/09/21 00:16:08;;;;;;;1.10;0.20;;;;;;;9.63;62.43;101488.44;4971201;28;97936;-69
2022/09/21 00:18:35;;;;;;;0.75;0.20;;;;;;;9.63;62.97;101491.97;4934775;28;115059;-71
2022/09/21 00:21:09;;;;;;;0.40;0.20;;;;;;;9.61;62.38;101490.56;4955994;28;126748;-69
2022/09/21 00:23:37;;;;;;;0.50;0.20;;;;;;;9.62;62.61;101489.50;4937934;28;98907;-69
2022/09/21 00:26:06;;;;;;;0.45;0.10;;;;;;;9.62;62.63;101487.63;4952484;28;108506;-69
2022/09/21 00:28:32;;;;;;;0.70;0.20;;;;;;;9.63;63.24;101491.13;4953881;28;97663;-64
2022/09/21 00:31:05;;;;;;;2.15;0.20;;;;;;;9.63;62.84;101497.34;4914846;28;99744;-63
2022/09/21 00:33:31;;;;;;;0.70;0.20;;;;;;;9.63;62.68;101499.19;4971126;28;97279;-63
2022/09/21 00:36:06;;;;;;;1.33;0.20;;;;;;;9.65;62.97;101495.22;4921493;28;97720;-68
2022/09/21 00:38:34;;;;;;;0.82;0.30;;;;;;;9.66;63.00;101496.03;4964548;28;97730;-70
2022/09/21 00:41:03;;;;;;;1.35;0.20;;;;;;;9.66;63.31;101501.44;4954378;28;127076;-69
2022/09/21 00:43:33;;;;;;;1.15;0.20;;;;;;;9.66;62.99;101501.44;4936383;28;97346;-69
2022/09/21 00:46:25;;;;;;;0.60;0.20;;;;;;;9.67;62.71;101498.53;4927327;28;98776;-69
2022/09/21 00:48:54;;;;;;;1.10;0.30;;;;;;;9.67;63.37;101498.53;4941828;28;97790;-70
2022/09/21 00:51:20;;;;;;;0.57;0.20;;;;;;;9.67;63.53;101495.84;4959307;28;97867;-63
2022/09/21 00:53:50;;;;;;;1.52;0.30;;;;;;;9.66;62.64;101502.25;4913174;28;97778;-69
2022/09/21 00:56:16;;;;;;;1.27;0.20;;;;;;;9.64;62.98;101506.25;4935771;28;97853;-63
2022/09/21 00:58:49;;;;;;;0.90;0.20;;;;;;;9.61;63.03;101501.34;4915222;28;98127;-69
2022/09/21 01:01:17;;;;;;;0.45;0.10;;;;;;;9.60;62.94;101508.59;4911460;28;98913;-69
2022/09/21 01:03:46;;;;;;;0.73;0.20;;;;;;;9.57;63.75;101501.78;4949139;28;98902;-69
2022/09/21 01:06:15;;;;;;;1.05;0.30;;;;;;;9.56;63.18;101505.56;4947596;28;97544;-69
2022/09/21 01:08:41;;;;;;;1.17;0.20;;;;;;;9.53;63.45;101511.41;4981739;28;97681;-64
2022/09/21 01:11:36;;;;;;;0.75;0.20;;;;;;;9.48;62.89;101507.78;4929601;28;99875;-63
2022/09/21 01:14:40;;;;;;;0.75;0.15;;;;;;;9.45;62.55;101508.25;4964580;28;97924;-69
2022/09/21 01:17:47;;;;;;;0.95;0.20;;;;;;;9.44;63.10;101512.81;4926470;28;97462;-63
2022/09/21 01:20:30;;;;;;;0.68;0.20;;;;;;;9.41;62.62;101517.84;4963805;28;99555;-69
2022/09/21 01:23:30;;;;;;;0.50;0.20;;;;;;;9.36;62.84;101509.66;4955341;28;112964;-63
2022/09/21 01:26:10;;;;;;;1.40;0.30;;;;;;;9.35;62.46;101522.28;4987101;28;98113;-64
2022/09/21 01:29:27;;;;;;;0.47;0.17;;;;;;;9.30;63.04;101520.28;4983731;28;97799;-69
2022/09/21 01:32:26;;;;;;;1.63;0.20;;;;;;;9.27;62.39;101517.25;4942109;28;98237;-63
2022/09/21 01:35:05;;;;;;;1.20;0.20;;;;;;;9.22;63.29;101520.63;4969926;28;99703;-63
2022/09/21 01:37:57;;;;;;;1.95;0.20;;;;;;;9.19;63.12;101517.59;4939207;28;96984;-63
2022/09/21 01:40:29;;;;;;;1.17;0.20;;;;;;;9.14;63.39;101525.53;4941270;28;97927;-69
2022/09/21 01:42:57;;;;;;;1.42;0.20;;;;;;;9.13;63.20;101524.72;4953965;28;97701;-63
2022/09/21 01:45:39;;;;;;;0.68;0.20;;;;;;;9.10;63.47;101520.63;4981785;28;98165;-63
2022/09/21 01:48:08;;;;;;;1.17;0.20;;;;;;;9.10;63.57;101527.88;4912331;28;97893;-69
2022/09/21 01:50:43;;;;;;;0.45;0.10;;;;;;;9.06;63.59;101521.31;4958092;28;97298;-69
2022/09/21 01:53:29;;;;;;;1.38;0.20;;;;;;;9.05;63.54;101533.13;4945939;28;97754;-69
2022/09/21 01:56:00;;;;;;;0.38;0.20;;;;;;;9.04;63.14;101526.94;4950189;28;97729;-69
2022/09/21 01:59:02;;;;;;;0.70;0.20;;;;;;;9.02;62.98;101523.66;4956387;28;99915;-68
2022/09/21 02:01:30;;;;;;;0.50;0.20;;;;;;;9.01;63.25;101518.50;4939767;28;97554;-69
2022/09/21 02:04:00;;;;;;;0.30;0.10;;;;;;;8.99;63.73;101528.66;4958496;28;107430;-63
2022/09/21 02:06:26;;;;;;;0.40;0.20;;;;;;;9.01;63.31;101522.00;4959301;28;97681;-63
2022/09/21 02:08:54;;;;;;;1.10;0.20;;;;;;;9.00;63.30;101525.75;4974793;28;97820;-69
2022/09/21 02:11:20;;;;;;;1.23;0.30;;;;;;;9.02;63.65;101528.22;4961692;28;97694;-63
2022/09/21 02:13:49;;;;;;;0.80;0.20;;;;;;;9.01;63.80;101526.56;4944380;28;97881;-63
2022/09/21 02:16:31;;;;;;;1.33;0.20;;;;;;;9.01;63.44;101529.28;4923171;28;97915;-69
2022/09/21 02:19:40;;;;;;;2.73;0.20;;;;;;;8.99;63.80;101529.47;4970866;28;98054;-71
2022/09/21 02:22:48;;;;;;;0.60;0.20;;;;;;;9.01;63.35;101537.34;4950352;28;97466;-63
2022/09/21 02:25:22;;;;;;;0.98;0.20;;;;;;;9.04;63.81;101534.19;4972356;28;97603;-63
2022/09/21 02:28:32;;;;;;;0.98;0.20;;;;;;;9.05;63.39;101533.13;4950184;28;97753;-69
2022/09/21 02:31:16;;;;;;;0.73;0.20;;;;;;;9.06;63.32;101540.97;4968677;28;97884;-68
2022/09/21 02:33:56;;;;;;;0.82;0.20;;;;;;;9.07;63.26;101533.72;4945448;28;98058;-69
2022/09/21 02:37:04;;;;;;;1.02;0.20;;;;;;;9.10;63.48;101539.44;4971743;28;98348;-63
2022/09/21 02:39:46;;;;;;;0.73;0.20;;;;;;;9.09;62.91;101543.19;4955925;28;97757;-69
2022/09/21 02:42:19;;;;;;;0.70;0.20;;;;;;;9.10;63.26;101536.75;4947858;28;99076;-63
2022/09/21 02:45:09;;;;;;;;;;;;;;;9.06;62.88;101542.84;4911964;28;97656;-69
2022/09/21 02:47:47;;;;;;;1.20;0.20;;;;;;;9.07;63.08;101542.59;4942507;28;100366;-65
2022/09/21 02:50:24;;;;;;;0.57;0.20;;;;;;;9.08;63.45;101540.75;4944649;28;97707;-69
2022/09/21 02:52:50;;;;;;;2.55;0.28;;;;;;;9.13;63.45;101540.03;4942943;28;98240;-64
2022/09/21 02:55:23;;;;;;;0.85;0.30;;;;;;;9.20;64.13;101541.59;4958171;28;98014;-69
2022/09/21 02:57:55;;;;;;;0.52;0.20;;;;;;;9.27;63.81;101539.56;4940541;28;98273;-69
2022/09/21 03:00:22;;;;;;;0.77;0.20;;;;;;;9.34;63.74;101548.38;4962094;28;97493;-69
2022/09/21 03:02:49;;;;;;;0.70;0.30;;;;;;;9.38;63.69;101550.59;4957834;28;97678;-70
2022/09/21 03:05:15;;;;;;;0.60;0.30;;;;;;;9.41;63.77;101552.81;4944905;28;97494;-64
2022/09/21 03:07:41;;;;;;;1.17;0.40;;;;;;;9.46;63.78;101551.06;4974694;28;97946;-64
2022/09/21 03:10:08;;;;;;;1.17;0.22;;;;;;;9.51;63.81;101550.34;4962643;28;98329;-64
2022/09/21 03:12:37;;;;;;;1.27;0.17;;;;;;;9.52;63.69;101552.84;4981390;28;97692;-71
2022/09/21 03:15:06;;;;;;;0.80;0.25;;;;;;;9.56;63.98;101550.50;4945597;28;98005;-70
2022/09/21 03:17:33;;;;;;;1.17;0.30;;;;;;;9.58;64.08;101559.94;4933584;28;97723;-69
2022/09/21 03:20:01;;;;;;;0.60;0.20;;;;;;;9.61;64.21;101558.69;4962372;28;97351;-69
2022/09/21 03:22:29;;;;;;;0.90;0.30;;;;;;;9.62;63.71;101557.63;4962507;28;97579;-69
2022/09/21 03:24:57;;;;;;;1.15;0.20;;;;;;;9.62;63.65;101556.81;4954891;28;97669;-69
2022/09/21 03:27:24;;;;;;;2.63;0.30;;;;;;;9.61;63.58;101561.38;4939540;28;97608;-64
2022/09/21 03:29:50;;;;;;;1.05;0.25;;;;;;;9.64;63.74;101557.41;4967853;28;97676;-63
2022/09/21 03:32:17;;;;;;;0.63;0.30;;;;;;;9.63;63.90;101556.59;4958296;28;99216;-70
2022/09/21 03:34:43;;;;;;;1.20;0.30;;;;;;;9.64;64.17;101560.09;4930015;28;100736;-64
2022/09/21 03:37:11;;;;;;;0.90;0.30;;;;;;;9.62;63.91;101568.38;4948800;28;99749;-70
2022/09/21 03:39:38;;;;;;;0.77;0.20;;;;;;;9.61;64.13;101558.69;4925742;28;98104;-63
2022/09/21 03:42:08;;;;;;;0.95;0.30;;;;;;;9.62;63.49;101559.50;4917796;28;129128;-70
2022/09/21 03:44:36;;;;;;;1.95;0.30;;;;;;;9.61;64.17;101561.38;4965250;28;98103;-63
2022/09/21 03:47:06;;;;;;;1.98;0.68;;;;;;;9.63;63.61;101555.75;4956838;28;97649;-69
2022/09/21 03:49:33;;;;;;;2.63;0.70;;;;;;;9.64;64.06;101565.47;4941669;28;97935;-69
2022/09/21 03:52:01;;;;;;;1.50;0.50;;;;;;;9.62;63.83;101564.88;4972878;28;97922;-70
2022/09/21 03:54:28;;;;;;;1.27;0.60;;;;;;;9.59;63.68;101564.31;4961407;28;97745;-70
2022/09/21 03:56:54;;;;;;;1.88;0.40;;;;;;;9.59;63.82;101568.88;4950629;28;97892;-63
2022/09/21 03:59:21;;;;;;;1.55;0.40;;;;;;;9.59;64.02;101569.69;4934456;28;129540;-69
2022/09/21 04:01:48;;;;;;;0.95;0.30;;;;;;;9.60;63.67;101573.19;4966340;28;99657;-63
2022/09/21 04:04:15;;;;;;;1.08;0.35;;;;;;;9.59;64.43;101576.94;4914820;28;97880;-63
2022/09/21 04:06:42;;;;;;;1.20;0.40;;;;;;;9.57;63.88;101571.78;4953543;28;98012;-64
2022/09/21 04:09:09;;;;;;;1.30;0.28;;;;;;;9.55;63.65;101570.41;4974071;28;98360;-63
2022/09/21 04:11:38;;;;;;;0.88;0.30;;;;;;;9.51;64.05;101574.59;4944967;28;98060;-69
2022/09/21 04:14:04;;;;;;;2.33;0.30;;;;;;;9.48;63.82;101572.38;4972809;28;97531;-69
2022/09/21 04:16:32;;;;;;;1.10;0.35;;;;;;;9.45;63.66;101578.22;4977521;28;97609;-69
2022/09/21 04:18:59;;;;;;;1.00;0.25;;;;;;;9.42;64.04;101584.06;4982030;28;98123;-69
2022/09/21 04:21:25;;;;;;;0.75;0.25;;;;;;;9.38;64.02;101577.50;4958666;28;121212;-69
2022/09/21 04:23:51;;;;;;;2.45;0.22;;;;;;;9.36;64.51;101583.13;4955753;28;97813;-64
2022/09/21 04:26:27;;;;;;;1.38;0.30;;;;;;;9.34;63.59;101587.91;4946110;28;128178;-69
2022/09/21 04:28:54;;;;;;;0.68;0.20;;;;;;;9.29;63.77;101588.59;4946746;28;97823;-64
2022/09/21 04:31:23;;;;;;;0.95;0.25;;;;;;;9.24;63.67;101588.50;4927130;28;116522;-69
2022/09/21 04:33:50;;;;;;;1.13;0.30;;;;;;;9.23;63.57;101591.41;4946499;28;97811;-63
2022/09/21 04:36:19;;;;;;;1.02;0.20;;;;;;;9.20;63.92;101592.69;4932930;28;99788;-69
2022/09/21 04:38:46;;;;;;;2.10;0.17;;;;;;;9.16;63.93;101593.41;4930290;28;97803;-63
2022/09/21 04:41:18;;;;;;;1.27;0.30;;;;;;;9.10;63.83;101590.56;4954118;28;97995;-69
2022/09/21 04:43:46;;;;;;;1.33;0.30;;;;;;;9.04;64.12;101594.19;4952644;28;97699;-69
2022/09/21 04:46:18;;;;;;;1.73;0.38;;;;;;;9.02;63.60;101603.53;4909593;28;97803;-69
2022/09/21 04:48:47;;;;;;;1.77;0.40;;;;;;;8.98;64.05;101611.22;4922881;28;98752;-69
2022/09/21 04:51:15;;;;;;;1.35;0.40;;;;;;;8.98;63.68;101613.09;4930779;28;97869;-69
2022/09/21 04:53:43;;;;;;;0.80;0.20;;;;;;;8.96;63.30;101609.81;4923041;28;96863;-70
2022/09/21 04:56:13;;;;;;;0.80;0.40;;;;;;;8.94;63.70;101609.22;4955903;28;97683;-69
2022/09/21 04:58:40;;;;;;;1.17;0.40;;;;;;;8.93;63.90;101615.66;4924287;28;98043;-69
2022/09/21 05:01:07;;;;;;;1.25;0.40;;;;;;;8.91;63.70;101618.56;4934468;28;122595;-63
2022/09/21 05:03:33;;;;;;;1.52;0.43;;;;;;;8.92;63.95;101614.84;4937640;28;97399;-63
2022/09/21 05:06:00;;;;;;;1.35;0.40;;;;;;;8.92;63.24;101622.06;4903204;28;100661;-63
2022/09/21 05:11:20;;;;;;;2.20;0.50;;;;;;;8.91;63.67;101623.94;4928225;28;97871;-63
2022/09/21 05:13:46;;;;;;;1.48;0.50;;;;;;;8.93;63.63;101621.03;4933720;28;97258;-63
2022/09/21 05:16:15;;;;;;;2.95;0.43;;;;;;;8.94;63.65;101626.19;4921682;28;110021;-69
2022/09/21 05:18:46;;;;;;;2.55;0.68;;;;;;;8.97;63.35;101620.34;4913425;28;97700;-69
2022/09/21 05:21:13;;;;;;;1.33;0.60;;;;;;;9.01;64.11;101628.78;4960959;28;97974;-69
2022/09/21 05:23:42;;;;;;;2.22;0.50;;;;;;;9.04;64.06;101625.63;4944714;28;97584;-69
2022/09/21 05:26:09;;;;;;;3.70;0.50;;;;;;;9.09;63.81;101623.88;4961518;28;97823;-69
2022/09/21 05:28:36;;;;;;;1.33;0.45;;;;;;;9.13;63.85;101632.31;4977615;28;97694;-69
2022/09/21 05:31:17;;;;;;;1.20;0.50;;;;;;;9.19;63.80;101638.66;4961175;28;97760;-69
2022/09/21 05:34:26;;;;;;;1.33;0.70;;;;;;;9.25;63.33;101637.75;4979285;28;97490;-70
2022/09/21 05:37:24;;;;;;;3.15;1.00;;;;;;;9.30;63.40;101640.56;4976830;28;98117;-69
2022/09/21 05:39:52;;;;;;;2.42;1.10;;;;;;;9.33;63.37;101640.91;4955432;28;97790;-69
2022/09/21 05:42:21;;;;;;;2.80;1.25;;;;;;;9.37;63.43;101643.97;4931047;28;99070;-69
2022/09/21 05:44:49;;;;;;;2.53;1.13;;;;;;;9.41;63.65;101647.03;4974270;28;97960;-69
2022/09/21 05:47:34;;;;;;;3.88;1.42;;;;;;;9.44;63.46;101641.19;4964907;28;98814;-70
2022/09/21 05:50:26;;;;;;;2.63;0.93;;;;;;;9.47;63.00;101643.38;4975946;28;97804;-69
2022/09/21 05:53:15;;;;;;;1.95;0.95;;;;;;;9.51;62.92;101645.41;4977056;28;97116;-69
2022/09/21 05:55:57;;;;;;;2.20;0.93;;;;;;;9.57;62.93;101647.16;4958313;28;97354;-69
2022/09/21 05:58:55;;;;;;;2.10;0.98;;;;;;;9.65;62.86;101648.69;4977266;28;97312;-63
2022/09/21 06:01:31;;;;;;;2.80;0.88;;;;;;;9.75;63.65;101650.81;4958015;28;98044;-64
2022/09/21 06:03:57;;;;;;;2.85;0.77;;;;;;;9.83;63.45;101650.47;4975736;28;98339;-63
2022/09/21 06:06:23;;;;;;;4.32;1.20;;;;;;;9.89;63.13;101649.53;4926078;28;97414;-63
2022/09/21 06:08:49;;;;;;;3.70;1.40;;;;;;;9.96;63.05;101649.41;4942813;28;97908;-63
2022/09/21 06:11:16;;;;;;;3.03;1.15;;;;;;;10.01;63.12;101654.91;4942268;28;97617;-64
2022/09/21 06:13:42;;;;;;;1.55;0.70;;;;;;;10.06;63.14;101658.56;4936247;28;97338;-64
2022/09/21 06:16:08;;;;;;;3.45;1.08;;;;;;;10.11;63.01;101659.72;4958394;28;97536;-64
2022/09/21 06:18:39;;;;;;;1.73;0.55;;;;;;;10.16;62.68;101660.66;4976418;28;97645;-63
2022/09/21 06:21:06;;;;;;;1.58;0.43;;;;;;;10.21;63.12;101660.75;4914968;28;97862;-63
2022/09/21 06:23:32;;;;;;;1.23;0.40;;;;;;;10.28;63.16;101661.47;4964385;28;104352;-63
2022/09/21 06:25:58;;;;;;;2.42;0.50;;;;;;;10.37;62.82;101666.50;4946523;28;98195;-64
2022/09/21 06:28:25;;;;;;;1.90;0.70;;;;;;;10.45;62.75;101669.69;4944045;28;98671;-64
2022/09/21 06:30:53;;;;;;;3.42;0.50;;;;;;;10.54;62.48;101664.75;4943390;28;98216;-64
2022/09/21 06:33:22;;;;;;;5.03;0.80;;;;;;;10.63;62.42;101671.38;4953909;28;98118;-63
2022/09/21 06:35:58;;;;;;;2.80;0.68;;;;;;;10.68;62.23;101671.47;4942768;28;98446;-64
2022/09/21 06:38:26;;;;;;;2.35;0.70;;;;;;;10.77;62.68;101670.06;4944278;28;97674;-64
2022/09/21 06:40:53;;;;;;;1.83;0.90;;;;;;;10.82;62.22;101675.56;4960658;28;97835;-64
2022/09/21 06:43:19;;;;;;;1.92;0.73;;;;;;;10.89;62.37;101670.03;4958513;28;97596;-64
2022/09/21 06:45:56;;;;;;;1.45;0.70;;;;;;;10.91;62.18;101675.97;4959711;28;97524;-64
2022/09/21 06:48:23;;;;;;;1.60;0.70;;;;;;;10.90;62.47;101679.75;4954915;28;99657;-64
2022/09/21 06:50:49;;;;;;;1.88;0.93;;;;;;;10.89;62.46;101677.31;4943017;28;97750;-64
2022/09/21 06:53:16;;;;;;;2.22;0.80;;;;;;;10.87;62.52;101682.91;4960725;28;97395;-64
2022/09/21 06:55:42;;;;;;;1.67;0.60;;;;;;;10.87;62.69;101682.09;4959736;28;97667;-64
2022/09/21 06:58:09;;;;;;;1.95;0.82;;;;;;;10.87;62.49;101680.22;4943381;28;98340;-64
2022/09/21 07:00:35;;;;;;;1.40;0.60;;;;;;;10.88;62.25;101687.25;4936562;28;98155;-64
2022/09/21 07:03:02;;;;;;;2.60;0.88;;;;;;;10.95;62.44;101677.16;4945958;28;98026;-64
2022/09/21 07:05:28;;;;;;;4.35;0.95;;;;;;;11.06;62.21;101673.59;4975160;28;97562;-64
2022/09/21 07:07:57;;;;;;;2.22;0.82;;;;;;;11.15;61.90;101684.00;4970872;28;129899;-64
2022/09/21 07:10:24;;;;;;;2.33;1.20;;;;;;;11.18;62.10;101687.03;4940342;28;99573;-64
2022/09/21 07:12:51;;;;;;;1.65;1.02;;;;;;;11.21;62.29;101681.16;4959948;28;99340;-64
2022/09/21 07:15:18;;;;;;;1.65;0.80;;;;;;;11.27;62.07;101679.34;4947513;28;97890;-64
2022/09/21 07:17:44;;;;;;;4.38;0.90;;;;;;;11.28;62.17;101681.81;4943010;28;98540;-64
2022/09/21 07:20:18;;;;;;;6.60;0.80;;;;;;;11.33;61.97;101685.69;4939255;28;97988;-69
2022/09/21 07:22:45;;;;;;;2.00;0.63;;;;;;;11.38;61.90;101685.75;4940783;28;97436;-70
2022/09/21 07:25:11;;;;;;;1.80;0.57;;;;;;;11.44;61.77;101701.00;4940990;28;98927;-64
2022/09/21 07:27:46;;;;;;;2.50;0.68;;;;;;;11.51;61.79;101694.38;4957612;28;114198;-69
2022/09/21 07:30:13;;;;;;;2.47;0.90;;;;;;;11.66;61.90;101690.28;4961589;28;100375;-70
2022/09/21 07:32:40;;;;;;;1.90;0.90;;;;;;;11.77;61.71;101692.91;4925133;28;97458;-69
2022/09/21 07:35:09;;;;;;;3.00;0.80;;;;;;;11.95;61.43;101691.88;4938727;28;97447;-65
2022/09/21 07:37:35;;;;;;;1.90;0.63;;;;;;;12.18;61.13;101699.00;4944782;28;98238;-64
2022/09/21 07:40:04;;;;;;;1.95;0.73;;;;;;;12.39;60.91;101696.56;4934455;28;124052;-64
2022/09/21 07:42:30;;;;;;;1.38;0.50;;;;;;;12.66;60.47;101699.34;4941210;28;97898;-64
2022/09/21 07:44:58;;;;;;;1.98;0.50;;;;;;;12.79;60.13;101696.25;4939847;28;112778;-70
2022/09/21 07:47:26;;;;;;;2.30;0.60;;;;;;;12.88;59.92;101702.84;4956058;28;97554;-72
2022/09/21 07:49:52;;;;;;;1.63;0.65;;;;;;;13.12;59.97;101703.38;4974893;28;98084;-65
2022/09/21 07:52:24;;;;;;;3.28;0.50;;;;;;;13.38;59.63;101695.56;4925836;28;97394;-70
2022/09/21 07:54:52;;;;;;;1.90;0.50;;;;;;;13.69;59.04;101700.19;4966870;28;97918;-70
2022/09/21 08:00:04;;;;;;;0.85;0.35;;;;;;;14.72;57.59;101691.63;4956588;28;97515;-64
2022/09/21 08:02:33;;;;;;;2.00;0.52;;;;;;;14.99;57.48;101696.06;4918474;28;97072;-71
2022/09/21 08:04:59;;;;;;;2.55;0.57;;;;;;;15.17;57.23;101694.78;4966845;28;97802;-65
2022/09/21 08:07:26;;;;;;;2.35;0.50;;;;;;;15.48;56.76;101690.16;4956832;28;127080;-65
2022/09/21 08:09:52;;;;;;;1.33;0.43;;;;;;;15.86;56.55;101697.00;4919559;28;97853;-66
2022/09/21 08:12:19;;;;;;;1.08;0.47;;;;;;;16.08;56.34;101690.47;4957509;28;102952;-71
2022/09/21 08:14:46;;;;;;;1.70;0.40;;;;;;;16.30;56.02;101695.56;4956977;28;97441;-65
2022/09/21 08:17:13;;;;;;;2.25;0.45;;;;;;;16.73;55.70;101687.81;4921601;28;97759;-65
2022/09/21 08:19:39;;;;;;;1.63;0.40;;;;;;;17.17;55.02;101694.16;4942546;28;98041;-65
2022/09/21 08:22:05;;;;;;;3.63;0.40;;;;;;;17.54;54.55;101694.72;4957105;28;97963;-65
2022/09/21 08:24:32;;;;;;;1.20;0.40;;;;;;;17.98;53.88;101693.81;4941148;28;115426;-65
2022/09/21 08:26:59;;;;;;;1.73;0.20;;;;;;;18.06;54.04;101704.09;4923932;28;98083;-65
2022/09/21 08:29:25;;;;;;;1.20;0.30;;;;;;;18.26;53.71;101695.72;4943202;28;99652;-65
2022/09/21 08:31:55;;;;;;;1.83;0.30;;;;;;;18.58;53.29;101703.25;4923859;28;98008;-65
2022/09/21 08:34:22;;;;;;;1.05;0.32;;;;;;;18.62;53.17;101700.75;4927306;28;97606;-65
2022/09/21 08:36:48;;;;;;;1.15;0.30;;;;;;;18.56;53.51;101707.41;4942247;28;97417;-65
2022/09/21 08:39:14;;;;;;;0.73;0.30;;;;;;;18.56;53.36;101707.41;4935811;28;123842;-65
2022/09/21 08:42:03;;;;;;;1.55;0.30;;;;;;;18.74;53.61;101705.84;4956569;28;114567;-65
2022/09/21 08:44:39;;;;;;;2.20;0.20;;;;;;;18.71;53.58;101707.25;4950272;28;97548;-65
2022/09/21 08:47:38;;;;;;;1.45;0.32;;;;;;;18.73;53.76;101705.03;4986509;28;114974;-65
2022/09/21 08:50:22;;;;;;;2.20;0.28;;;;;;;18.93;52.92;101708.59;4974891;28;97798;-64
2022/09/21 08:52:49;;;;;;;1.02;0.30;;;;;;;19.03;52.61;101700.28;4958259;28;97616;-65
2022/09/21 08:55:20;;;;;;;1.45;0.20;;;;;;;19.96;51.50;101698.53;4925536;28;104831;-65
2022/09/21 08:57:46;;;;;;;1.08;0.38;;;;;;;20.42;50.46;101700.41;4943512;28;98137;-65
2022/09/21 09:00:17;;;;;;;0.47;0.20;;;;;;;20.49;50.33;101703.59;4923329;28;128763;-65
2022/09/21 09:02:55;;;;;;;0.82;0.20;;;;;;;20.87;50.38;101697.91;4944540;28;111805;-65
2022/09/21 09:05:54;;;;;;;0.52;0.20;;;;;;;20.61;51.04;101703.09;4954533;28;97543;-65
2022/09/21 09:08:29;;;;;;;0.90;0.30;;;;;;;20.86;50.79;101707.22;4933976;28;98901;-65
2022/09/21 09:11:12;;;;;;;0.45;0.13;;;;;;;20.78;50.16;101699.72;4950810;28;98039;-65
2022/09/21 09:14:03;;;;;;;0.90;0.15;;;;;;;20.99;50.70;101698.19;4938646;28;97826;-65
2022/09/21 09:16:50;;;;;;;1.45;0.20;;;;;;;21.29;49.89;101698.59;4957343;28;97502;-65
2022/09/21 09:19:36;;;;;;;1.15;0.22;;;;;;;21.36;49.86;101695.44;4976941;28;98369;-71
2022/09/21 09:22:05;;;;;;;1.05;0.20;;;;;;;21.19;49.52;101696.09;4961439;28;98035;-71
2022/09/21 09:24:48;;;;;;;3.40;0.22;;;;;;;20.97;50.26;101696.84;4920856;28;97594;-71
2022/09/21 09:27:27;;;;;;;;;;;;;;;20.89;51.18;101692.91;4938865;28;97899;-71
2022/09/21 09:30:16;;;;;;;0.95;0.22;;;;;;;20.69;50.60;101691.41;4957905;28;97733;-69
2022/09/21 09:33:19;;;;;;;0.88;0.20;;;;;;;20.67;51.08;101701.03;4931734;28;97947;-69
2022/09/21 09:35:50;;;;;;;0.95;0.22;;;;;;;20.66;50.11;101693.94;4944208;28;97954;-70
2022/09/21 09:38:41;;;;;;;1.40;0.30;;;;;;;20.71;50.54;101691.94;4945437;28;97667;-70
2022/09/21 09:41:33;;;;;;;1.00;0.20;;;;;;;20.92;50.15;101689.56;4963584;28;97539;-65
2022/09/21 09:44:13;;;;;;;;;;;;;;;21.24;50.44;101693.22;4942166;28;97914;-65
2022/09/21 09:47:19;;;;;;;0.50;0.20;;;;;;;21.61;49.61;101686.59;4957824;28;105019;-65
2022/09/21 09:50:12;;;;;;;0.90;0.20;;;;;;;21.75;49.41;101692.00;4963372;28;97990;-65
2022/09/21 09:52:38;;;;;;;1.15;0.22;;;;;;;21.92;48.34;101686.63;4965044;28;97625;-65
2022/09/21 09:55:25;;;;;;;1.33;0.20;;;;;;;21.98;49.24;101687.31;4951470;28;97722;-69
2022/09/21 09:57:54;;;;;;;1.50;0.40;;;;;;;23.12;46.40;101690.13;4929242;28;97933;-70
2022/09/21 10:00:21;;;;;;;0.70;0.20;;;;;;;23.31;46.40;101695.28;4957675;28;97669;-70
2022/09/21 10:02:55;;;;;;;2.25;0.20;;;;;;;23.95;45.33;101692.63;4926131;28;97450;-65
2022/09/21 10:05:33;;;;;;;1.63;0.17;;;;;;;24.27;44.87;101692.34;4960100;28;97790;-66
2022/09/21 10:08:00;;;;;;;0.80;0.20;;;;;;;24.85;44.43;101699.84;4972542;28;97369;-66
2022/09/21 10:10:37;;;;;;;2.53;0.20;;;;;;;24.68;45.30;101688.91;4967195;28;97928;-71
2022/09/21 10:13:12;;;;;;;0.40;0.20;;;;;;;24.46;45.48;101690.81;4946901;28;97900;-66
2022/09/21 10:16:08;;;;;;;1.00;0.20;;;;;;;24.82;45.31;101681.19;4948211;28;103682;-69
2022/09/21 10:18:55;;;;;;;2.15;0.20;;;;;;;25.84;42.82;101681.81;4958014;28;97775;-70
2022/09/21 10:21:36;;;;;;;0.80;0.20;;;;;;;27.56;41.70;101683.22;4928101;28;97585;-66
2022/09/21 10:24:21;;;;;;;0.93;0.30;;;;;;;28.83;39.97;101681.25;4930471;28;98578;-66
2022/09/21 10:26:53;;;;;;;0.85;0.20;;;;;;;29.00;39.23;101670.91;4940979;28;97862;-71
2022/09/21 10:29:31;;;;;;;4.68;0.20;;;;;;;31.05;36.83;101676.81;4956614;28;97757;-67
2022/09/21 10:32:25;;;;;;;1.88;0.20;;;;;;;32.45;36.59;101670.66;4971539;28;97849;-71
2022/09/21 10:35:06;;;;;;;1.15;0.20;;;;;;;31.55;38.28;101669.03;4955571;28;99249;-67
2022/09/21 10:37:53;;;;;;;0.47;0.10;;;;;;;31.41;38.37;101660.56;4954544;28;97821;-73
2022/09/21 10:40:19;;;;;;;0.47;0.10;;;;;;;30.43;38.09;101657.66;4938886;28;97770;-66
2022/09/21 10:42:47;;;;;;;0.75;0.17;;;;;;;29.32;39.15;101655.72;4953570;28;97858;-71
2022/09/21 10:45:23;;;;;;;0.82;0.20;;;;;;;29.54;39.55;101651.38;4957647;28;99801;-71
2022/09/21 10:48:08;;;;;;;0.60;0.20;;;;;;;29.51;39.26;101646.53;4923063;28;97865;-66
2022/09/21 10:50:36;;;;;;;0.60;0.10;;;;;;;28.56;39.08;101651.72;4950562;28;97717;-71
2022/09/21 10:53:30;;;;;;;1.00;0.10;;;;;;;28.70;38.86;101642.91;4975484;28;97881;-66
2022/09/21 10:56:19;;;;;;;0.40;0.10;;;;;;;29.62;38.26;101632.91;4956842;28;99605;-71
2022/09/21 10:59:12;;;;;;;0.50;0.10;;;;;;;31.40;36.36;101639.44;4944731;28;98011;-66
2022/09/21 11:01:49;;;;;;;0.50;0.03;;;;;;;31.99;35.79;101632.03;4963231;28;97907;-71
2022/09/21 11:04:26;;;;;;;1.30;0.10;;;;;;;30.17;38.11;101630.66;4943101;28;98272;-70
2022/09/21 11:07:08;;;;;;;1.35;0.10;;;;;;;29.31;37.68;101625.53;4956005;28;97729;-66
2022/09/21 11:09:47;;;;;;;0.50;0.10;;;;;;;29.03;38.13;101623.81;4932846;28;97786;-71
2022/09/21 11:12:31;;;;;;;0.28;0.03;;;;;;;27.79;39.76;101621.75;4927498;28;99008;-66
2022/09/21 11:15:33;;;;;;;0.22;0.00;;;;;;;26.52;41.07;101621.28;4976813;28;97535;-67
2022/09/21 11:18:37;;;;;;;;;;;;;;;25.33;43.07;101615.75;4927052;28;97989;-71
2022/09/21 11:21:28;;;;;;;0.38;0.00;;;;;;;24.21;43.19;101615.41;4945300;28;97913;-66
2022/09/21 11:24:11;;;;;;;0.80;0.00;;;;;;;23.53;43.49;101618.06;4938233;28;97971;-70
2022/09/21 11:27:04;;;;;;;0.28;0.00;;;;;;;25.06;41.06;101606.06;4954783;28;97281;-65
2022/09/21 11:29:46;;;;;;;0.20;0.00;;;;;;;24.20;41.89;101615.72;4943168;28;97650;-66
2022/09/21 11:32:50;;;;;;;0.30;0.08;;;;;;;23.30;42.32;101621.34;4969302;28;98335;-70
2022/09/21 11:35:44;;;;;;;0.13;0.00;;;;;;;22.39;43.79;101614.81;4949088;28;98421;-65
2022/09/21 11:38:33;;;;;;;0.30;0.00;;;;;;;21.53;44.95;101621.50;4947433;28;97490;-65
2022/09/21 11:41:43;;;;;;;0.40;0.10;;;;;;;20.88;45.71;101621.97;4957197;28;97841;-65
2022/09/21 11:44:36;;;;;;;0.88;0.15;;;;;;;20.30;46.14;101627.00;4962531;28;98204;-70
2022/09/21 11:47:29;;;;;;;1.08;0.10;;;;;;;19.77;46.63;101630.22;4940583;28;97928;-70
2022/09/21 11:50:16;;;;;;;0.50;0.10;;;;;;;19.54;47.10;101621.03;4989632;28;97489;-70
2022/09/21 11:53:19;;;;;;;0.50;0.10;;;;;;;19.27;47.40;101610.81;4968547;28;98396;-64
2022/09/21 11:55:47;;;;;;;;;;;;;;;19.04;47.50;101614.47;4958204;28;97772;-65
2022/09/21 11:58:27;;;;;;;0.30;0.10;;;;;;;19.06;47.74;101617.69;4982094;28;97619;-64
2022/09/21 12:01:22;;;;;;;0.43;0.10;;;;;;;19.06;47.77;101612.22;4947230;28;97800;-65
2022/09/21 12:04:14;;;;;;;0.40;0.10;;;;;;;19.95;46.16;101605.81;4944199;28;97864;-70
2022/09/21 12:06:54;;;;;;;1.42;0.10;;;;;;;21.88;43.60;101607.97;4948751;28;97930;-70
2022/09/21 12:10:02;;;;;;;1.00;0.10;;;;;;;23.39;42.06;101608.41;4940160;28;97653;-71
2022/09/21 12:13:08;;;;;;;0.20;0.10;;;;;;;23.53;42.27;101620.00;4960780;28;98159;-65